sensor_id;sensor_type;location;lat;lon;timestamp;P1;durP1;ratioP1;P2;durP2;ratioP2
2898;SDS011;1459;50.864;6.438;2022-11-20T00:01:22;32.92;;;18.70;;
2898;SDS011;1459;50.864;6.438;2022-11-20T00:03:51;28.30;;;18.67;;
2898;SDS011;1459;50.864;6.438;2022-11-20T00:06:21;25.70;;;17.45;;
2898;SDS011;1459;50.864;6.438;2022-11-20T00:08:48;28.67;;;18.75;;
2898;SDS011;1459;50.864;6.438;2022-11-20T00:11:17;26.10;;;18.27;;
2898;SDS011;1459;50.864;6.438;2022-11-20T00:13:47;26.98;;;17.98;;
2898;SDS011;1459;50.864;6.438;2022-11-20T00:16:16;28.35;;;18.00;;
2898;SDS011;1459;50.864;6.438;2022-11-20T00:18:44;27.83;;;18.63;;
2898;SDS011;1459;50.864;6.438;2022-11-20T00:21:12;28.95;;;18.73;;
2898;SDS011;1459;50.864;6.438;2022-11-20T00:23:42;26.83;;;19.42;;
2898;SDS011;1459;50.864;6.438;2022-11-20T00:26:10;23.10;;;17.65;;
2898;SDS011;1459;50.864;6.438;2022-11-20T00:28:38;27.48;;;17.77;;
2898;SDS011;1459;50.864;6.438;2022-11-20T00:31:06;25.60;;;16.75;;
2898;SDS011;1459;50.864;6.438;2022-11-20T00:33:34;27.58;;;18.60;;
2898;SDS011;1459;50.864;6.438;2022-11-20T00:36:02;28.30;;;18.30;;
2898;SDS011;1459;50.864;6.438;2022-11-20T00:38:29;29.88;;;19.40;;
2898;SDS011;1459;50.864;6.438;2022-11-20T00:40:58;28.25;;;19.10;;
2898;SDS011;1459;50.864;6.438;2022-11-20T00:43:26;29.02;;;19.10;;
2898;SDS011;1459;50.864;6.438;2022-11-20T00:45:57;29.00;;;19.58;;
2898;SDS011;1459;50.864;6.438;2022-11-20T00:48:24;31.23;;;19.30;;
2898;SDS011;1459;50.864;6.438;2022-11-20T00:50:52;29.10;;;19.40;;
2898;SDS011;1459;50.864;6.438;2022-11-20T00:53:19;30.58;;;19.70;;
2898;SDS011;1459;50.864;6.438;2022-11-20T00:55:52;29.52;;;19.05;;
2898;SDS011;1459;50.864;6.438;2022-11-20T00:58:22;27.65;;;19.80;;
2898;SDS011;1459;50.864;6.438;2022-11-20T01:00:49;29.23;;;18.20;;
2898;SDS011;1459;50.864;6.438;2022-11-20T01:03:16;30.20;;;19.85;;
2898;SDS011;1459;50.864;6.438;2022-11-20T01:05:44;32.03;;;20.98;;
2898;SDS011;1459;50.864;6.438;2022-11-20T01:08:11;35.05;;;20.60;;
2898;SDS011;1459;50.864;6.438;2022-11-20T01:10:38;31.95;;;20.70;;
2898;SDS011;1459;50.864;6.438;2022-11-20T01:13:05;32.08;;;20.35;;
2898;SDS011;1459;50.864;6.438;2022-11-20T01:15:50;29.60;;;18.83;;
2898;SDS011;1459;50.864;6.438;2022-11-20T01:18:17;32.40;;;19.58;;
2898;SDS011;1459;50.864;6.438;2022-11-20T01:20:44;27.45;;;18.23;;
2898;SDS011;1459;50.864;6.438;2022-11-20T01:23:11;31.42;;;20.70;;
2898;SDS011;1459;50.864;6.438;2022-11-20T01:25:38;31.98;;;19.95;;
2898;SDS011;1459;50.864;6.438;2022-11-20T01:28:05;27.17;;;19.58;;
2898;SDS011;1459;50.864;6.438;2022-11-20T01:30:32;30.30;;;19.67;;
2898;SDS011;1459;50.864;6.438;2022-11-20T01:33:00;33.85;;;20.10;;
2898;SDS011;1459;50.864;6.438;2022-11-20T01:35:27;29.52;;;19.55;;
2898;SDS011;1459;50.864;6.438;2022-11-20T01:37:54;35.20;;;22.60;;
2898;SDS011;1459;50.864;6.438;2022-11-20T01:40:21;32.13;;;21.60;;
2898;SDS011;1459;50.864;6.438;2022-11-20T01:42:52;33.72;;;20.95;;
2898;SDS011;1459;50.864;6.438;2022-11-20T01:45:56;26.88;;;18.90;;
2898;SDS011;1459;50.864;6.438;2022-11-20T01:48:31;36.10;;;21.02;;
2898;SDS011;1459;50.864;6.438;2022-11-20T01:51:02;29.75;;;19.45;;
2898;SDS011;1459;50.864;6.438;2022-11-20T01:53:30;31.20;;;18.58;;
2898;SDS011;1459;50.864;6.438;2022-11-20T01:56:01;26.23;;;19.48;;
2898;SDS011;1459;50.864;6.438;2022-11-20T01:58:32;29.40;;;18.17;;
2898;SDS011;1459;50.864;6.438;2022-11-20T02:01:02;30.45;;;17.85;;
2898;SDS011;1459;50.864;6.438;2022-11-20T02:03:31;29.42;;;18.73;;
2898;SDS011;1459;50.864;6.438;2022-11-20T02:06:01;25.30;;;18.00;;
2898;SDS011;1459;50.864;6.438;2022-11-20T02:08:34;27.55;;;19.65;;
2898;SDS011;1459;50.864;6.438;2022-11-20T02:11:03;26.58;;;18.55;;
2898;SDS011;1459;50.864;6.438;2022-11-20T02:13:30;25.70;;;17.63;;
2898;SDS011;1459;50.864;6.438;2022-11-20T02:16:10;29.73;;;19.23;;
2898;SDS011;1459;50.864;6.438;2022-11-20T02:18:42;27.38;;;18.63;;
2898;SDS011;1459;50.864;6.438;2022-11-20T02:21:13;27.33;;;16.52;;
2898;SDS011;1459;50.864;6.438;2022-11-20T02:24:03;28.83;;;18.08;;
2898;SDS011;1459;50.864;6.438;2022-11-20T02:26:33;28.75;;;18.30;;
2898;SDS011;1459;50.864;6.438;2022-11-20T02:29:04;28.48;;;19.35;;
2898;SDS011;1459;50.864;6.438;2022-11-20T02:31:38;27.80;;;19.30;;
2898;SDS011;1459;50.864;6.438;2022-11-20T02:34:07;26.92;;;18.50;;
2898;SDS011;1459;50.864;6.438;2022-11-20T02:36:35;29.30;;;18.15;;
2898;SDS011;1459;50.864;6.438;2022-11-20T02:39:06;30.30;;;19.08;;
2898;SDS011;1459;50.864;6.438;2022-11-20T02:41:34;28.90;;;21.33;;
2898;SDS011;1459;50.864;6.438;2022-11-20T02:44:02;26.50;;;18.15;;
2898;SDS011;1459;50.864;6.438;2022-11-20T02:46:30;27.20;;;18.15;;
2898;SDS011;1459;50.864;6.438;2022-11-20T02:48:58;26.77;;;17.95;;
2898;SDS011;1459;50.864;6.438;2022-11-20T02:51:26;24.77;;;17.50;;
2898;SDS011;1459;50.864;6.438;2022-11-20T02:53:53;28.65;;;18.50;;
2898;SDS011;1459;50.864;6.438;2022-11-20T02:56:22;29.35;;;21.27;;
2898;SDS011;1459;50.864;6.438;2022-11-20T02:58:49;28.67;;;18.98;;
2898;SDS011;1459;50.864;6.438;2022-11-20T03:01:16;32.53;;;19.45;;
2898;SDS011;1459;50.864;6.438;2022-11-20T03:03:43;31.85;;;20.73;;
2898;SDS011;1459;50.864;6.438;2022-11-20T03:06:10;28.70;;;18.63;;
2898;SDS011;1459;50.864;6.438;2022-11-20T03:08:37;27.15;;;17.05;;
2898;SDS011;1459;50.864;6.438;2022-11-20T03:11:04;27.25;;;19.25;;
2898;SDS011;1459;50.864;6.438;2022-11-20T03:13:34;30.23;;;18.25;;
2898;SDS011;1459;50.864;6.438;2022-11-20T03:16:05;28.35;;;17.88;;
2898;SDS011;1459;50.864;6.438;2022-11-20T03:18:33;28.10;;;19.15;;
2898;SDS011;1459;50.864;6.438;2022-11-20T03:21:00;28.95;;;18.48;;
2898;SDS011;1459;50.864;6.438;2022-11-20T03:23:28;26.13;;;17.60;;
2898;SDS011;1459;50.864;6.438;2022-11-20T03:25:56;28.38;;;18.35;;
2898;SDS011;1459;50.864;6.438;2022-11-20T03:28:34;31.13;;;20.80;;
2898;SDS011;1459;50.864;6.438;2022-11-20T03:31:04;32.83;;;20.65;;
2898;SDS011;1459;50.864;6.438;2022-11-20T03:33:32;27.35;;;18.30;;
2898;SDS011;1459;50.864;6.438;2022-11-20T03:36:00;31.33;;;20.27;;
2898;SDS011;1459;50.864;6.438;2022-11-20T03:38:28;30.65;;;20.08;;
2898;SDS011;1459;50.864;6.438;2022-11-20T03:40:57;24.90;;;18.60;;
2898;SDS011;1459;50.864;6.438;2022-11-20T03:43:25;31.25;;;18.73;;
2898;SDS011;1459;50.864;6.438;2022-11-20T03:45:54;30.00;;;20.52;;
2898;SDS011;1459;50.864;6.438;2022-11-20T03:48:21;29.83;;;20.75;;
2898;SDS011;1459;50.864;6.438;2022-11-20T03:50:48;34.53;;;21.30;;
2898;SDS011;1459;50.864;6.438;2022-11-20T03:53:15;30.38;;;20.48;;
2898;SDS011;1459;50.864;6.438;2022-11-20T03:55:45;31.17;;;20.02;;
2898;SDS011;1459;50.864;6.438;2022-11-20T03:58:17;33.00;;;19.48;;
2898;SDS011;1459;50.864;6.438;2022-11-20T04:00:44;32.13;;;19.77;;
2898;SDS011;1459;50.864;6.438;2022-11-20T04:03:12;29.48;;;19.30;;
2898;SDS011;1459;50.864;6.438;2022-11-20T04:05:39;34.35;;;20.80;;
2898;SDS011;1459;50.864;6.438;2022-11-20T04:08:06;29.08;;;19.90;;
2898;SDS011;1459;50.864;6.438;2022-11-20T04:10:33;30.35;;;19.05;;
2898;SDS011;1459;50.864;6.438;2022-11-20T04:13:00;32.00;;;20.10;;
2898;SDS011;1459;50.864;6.438;2022-11-20T04:15:27;28.63;;;19.75;;
2898;SDS011;1459;50.864;6.438;2022-11-20T04:17:54;32.63;;;21.75;;
2898;SDS011;1459;50.864;6.438;2022-11-20T04:20:22;30.05;;;19.33;;
2898;SDS011;1459;50.864;6.438;2022-11-20T04:22:52;24.63;;;16.85;;
2898;SDS011;1459;50.864;6.438;2022-11-20T04:25:20;31.05;;;19.92;;
2898;SDS011;1459;50.864;6.438;2022-11-20T04:27:47;32.30;;;19.13;;
2898;SDS011;1459;50.864;6.438;2022-11-20T04:30:14;28.02;;;18.45;;
2898;SDS011;1459;50.864;6.438;2022-11-20T04:32:41;30.92;;;19.67;;
2898;SDS011;1459;50.864;6.438;2022-11-20T04:35:08;31.63;;;19.23;;
2898;SDS011;1459;50.864;6.438;2022-11-20T04:37:36;27.63;;;17.92;;
2898;SDS011;1459;50.864;6.438;2022-11-20T04:40:04;32.80;;;22.13;;
2898;SDS011;1459;50.864;6.438;2022-11-20T04:42:31;31.52;;;20.05;;
2898;SDS011;1459;50.864;6.438;2022-11-20T04:44:58;28.85;;;18.77;;
2898;SDS011;1459;50.864;6.438;2022-11-20T04:47:26;29.50;;;19.63;;
2898;SDS011;1459;50.864;6.438;2022-11-20T04:49:53;33.08;;;20.75;;
2898;SDS011;1459;50.864;6.438;2022-11-20T04:52:20;27.15;;;18.88;;
2898;SDS011;1459;50.864;6.438;2022-11-20T04:54:48;32.63;;;21.40;;
2898;SDS011;1459;50.864;6.438;2022-11-20T04:57:17;32.75;;;21.60;;
2898;SDS011;1459;50.864;6.438;2022-11-20T04:59:44;29.33;;;18.00;;
2898;SDS011;1459;50.864;6.438;2022-11-20T05:02:11;28.90;;;17.85;;
2898;SDS011;1459;50.864;6.438;2022-11-20T05:04:39;26.05;;;18.77;;
2898;SDS011;1459;50.864;6.438;2022-11-20T05:07:06;29.58;;;20.67;;
2898;SDS011;1459;50.864;6.438;2022-11-20T05:09:33;27.92;;;19.73;;
2898;SDS011;1459;50.864;6.438;2022-11-20T05:12:01;27.55;;;17.83;;
2898;SDS011;1459;50.864;6.438;2022-11-20T05:14:29;31.67;;;19.52;;
2898;SDS011;1459;50.864;6.438;2022-11-20T05:16:56;28.48;;;18.55;;
2898;SDS011;1459;50.864;6.438;2022-11-20T05:19:23;28.20;;;17.90;;
2898;SDS011;1459;50.864;6.438;2022-11-20T05:21:49;31.83;;;18.35;;
2898;SDS011;1459;50.864;6.438;2022-11-20T05:24:16;30.90;;;19.00;;
2898;SDS011;1459;50.864;6.438;2022-11-20T05:26:43;27.20;;;19.20;;
2898;SDS011;1459;50.864;6.438;2022-11-20T05:29:12;26.25;;;18.15;;
2898;SDS011;1459;50.864;6.438;2022-11-20T05:31:39;24.73;;;17.58;;
2898;SDS011;1459;50.864;6.438;2022-11-20T05:34:07;31.27;;;19.90;;
2898;SDS011;1459;50.864;6.438;2022-11-20T05:36:34;30.58;;;18.60;;
2898;SDS011;1459;50.864;6.438;2022-11-20T05:39:01;30.80;;;19.73;;
2898;SDS011;1459;50.864;6.438;2022-11-20T05:41:28;27.17;;;17.75;;
2898;SDS011;1459;50.864;6.438;2022-11-20T05:43:55;27.90;;;18.88;;
2898;SDS011;1459;50.864;6.438;2022-11-20T05:46:25;25.30;;;17.98;;
2898;SDS011;1459;50.864;6.438;2022-11-20T05:48:52;32.40;;;20.23;;
2898;SDS011;1459;50.864;6.438;2022-11-20T05:51:19;30.92;;;21.20;;
2898;SDS011;1459;50.864;6.438;2022-11-20T05:53:46;31.85;;;20.00;;
2898;SDS011;1459;50.864;6.438;2022-11-20T05:56:14;31.25;;;20.23;;
2898;SDS011;1459;50.864;6.438;2022-11-20T05:58:42;30.98;;;19.83;;
2898;SDS011;1459;50.864;6.438;2022-11-20T06:01:11;30.30;;;19.10;;
2898;SDS011;1459;50.864;6.438;2022-11-20T06:03:41;34.55;;;21.88;;
2898;SDS011;1459;50.864;6.438;2022-11-20T06:06:10;27.02;;;18.55;;
2898;SDS011;1459;50.864;6.438;2022-11-20T06:08:38;30.80;;;18.60;;
2898;SDS011;1459;50.864;6.438;2022-11-20T06:11:05;28.10;;;18.67;;
2898;SDS011;1459;50.864;6.438;2022-11-20T06:13:33;34.35;;;20.65;;
2898;SDS011;1459;50.864;6.438;2022-11-20T06:16:00;31.90;;;19.83;;
2898;SDS011;1459;50.864;6.438;2022-11-20T06:18:28;30.10;;;17.10;;
2898;SDS011;1459;50.864;6.438;2022-11-20T06:21:00;25.92;;;17.85;;
2898;SDS011;1459;50.864;6.438;2022-11-20T06:23:29;29.10;;;18.83;;
2898;SDS011;1459;50.864;6.438;2022-11-20T06:25:57;27.98;;;17.95;;
2898;SDS011;1459;50.864;6.438;2022-11-20T06:28:25;32.00;;;19.10;;
2898;SDS011;1459;50.864;6.438;2022-11-20T06:30:52;27.92;;;20.13;;
2898;SDS011;1459;50.864;6.438;2022-11-20T06:33:20;31.88;;;20.48;;
2898;SDS011;1459;50.864;6.438;2022-11-20T06:35:47;31.23;;;20.45;;
2898;SDS011;1459;50.864;6.438;2022-11-20T06:38:15;32.70;;;20.30;;
2898;SDS011;1459;50.864;6.438;2022-11-20T06:40:42;34.95;;;19.65;;
2898;SDS011;1459;50.864;6.438;2022-11-20T06:43:09;30.88;;;19.38;;
2898;SDS011;1459;50.864;6.438;2022-11-20T06:45:36;33.78;;;20.10;;
2898;SDS011;1459;50.864;6.438;2022-11-20T06:48:03;35.20;;;19.83;;
2898;SDS011;1459;50.864;6.438;2022-11-20T06:50:30;29.38;;;20.02;;
2898;SDS011;1459;50.864;6.438;2022-11-20T06:53:00;31.95;;;20.20;;
2898;SDS011;1459;50.864;6.438;2022-11-20T06:55:29;39.03;;;21.23;;
2898;SDS011;1459;50.864;6.438;2022-11-20T06:57:56;33.17;;;21.17;;
2898;SDS011;1459;50.864;6.438;2022-11-20T07:00:23;34.00;;;23.25;;
2898;SDS011;1459;50.864;6.438;2022-11-20T07:02:50;39.30;;;22.95;;
2898;SDS011;1459;50.864;6.438;2022-11-20T07:05:17;40.08;;;23.85;;
2898;SDS011;1459;50.864;6.438;2022-11-20T07:07:44;31.88;;;21.35;;
2898;SDS011;1459;50.864;6.438;2022-11-20T07:10:11;33.38;;;22.20;;
2898;SDS011;1459;50.864;6.438;2022-11-20T07:12:40;31.65;;;21.70;;
2898;SDS011;1459;50.864;6.438;2022-11-20T07:15:07;42.35;;;23.35;;
2898;SDS011;1459;50.864;6.438;2022-11-20T07:17:34;34.05;;;22.15;;
2898;SDS011;1459;50.864;6.438;2022-11-20T07:20:01;43.35;;;21.55;;
2898;SDS011;1459;50.864;6.438;2022-11-20T07:22:28;34.58;;;22.88;;
2898;SDS011;1459;50.864;6.438;2022-11-20T07:24:55;43.03;;;23.05;;
2898;SDS011;1459;50.864;6.438;2022-11-20T07:27:22;39.15;;;23.27;;
2898;SDS011;1459;50.864;6.438;2022-11-20T07:29:51;33.42;;;22.20;;
2898;SDS011;1459;50.864;6.438;2022-11-20T07:32:18;35.00;;;22.58;;
2898;SDS011;1459;50.864;6.438;2022-11-20T07:34:45;30.30;;;20.77;;
2898;SDS011;1459;50.864;6.438;2022-11-20T07:37:12;32.83;;;21.90;;
2898;SDS011;1459;50.864;6.438;2022-11-20T07:39:38;33.67;;;20.70;;
2898;SDS011;1459;50.864;6.438;2022-11-20T07:42:06;37.80;;;22.60;;
2898;SDS011;1459;50.864;6.438;2022-11-20T07:44:33;32.92;;;21.80;;
2898;SDS011;1459;50.864;6.438;2022-11-20T07:47:01;37.50;;;21.17;;
2898;SDS011;1459;50.864;6.438;2022-11-20T07:49:28;38.17;;;21.88;;
2898;SDS011;1459;50.864;6.438;2022-11-20T07:51:56;33.53;;;20.15;;
2898;SDS011;1459;50.864;6.438;2022-11-20T07:54:23;37.85;;;19.17;;
2898;SDS011;1459;50.864;6.438;2022-11-20T07:56:50;33.80;;;22.30;;
2898;SDS011;1459;50.864;6.438;2022-11-20T07:59:17;31.98;;;18.85;;
2898;SDS011;1459;50.864;6.438;2022-11-20T08:01:44;31.23;;;19.58;;
2898;SDS011;1459;50.864;6.438;2022-11-20T08:04:12;29.30;;;20.52;;
2898;SDS011;1459;50.864;6.438;2022-11-20T08:06:41;34.03;;;20.08;;
2898;SDS011;1459;50.864;6.438;2022-11-20T08:09:08;33.67;;;19.70;;
2898;SDS011;1459;50.864;6.438;2022-11-20T08:11:35;33.70;;;20.05;;
2898;SDS011;1459;50.864;6.438;2022-11-20T08:14:20;30.23;;;19.17;;
2898;SDS011;1459;50.864;6.438;2022-11-20T08:16:47;35.13;;;20.75;;
2898;SDS011;1459;50.864;6.438;2022-11-20T08:19:17;31.73;;;21.63;;
2898;SDS011;1459;50.864;6.438;2022-11-20T08:21:44;32.40;;;19.70;;
2898;SDS011;1459;50.864;6.438;2022-11-20T08:24:13;32.72;;;20.40;;
2898;SDS011;1459;50.864;6.438;2022-11-20T08:26:40;35.42;;;20.45;;
2898;SDS011;1459;50.864;6.438;2022-11-20T08:29:07;34.60;;;20.00;;
2898;SDS011;1459;50.864;6.438;2022-11-20T08:31:34;26.58;;;17.58;;
2898;SDS011;1459;50.864;6.438;2022-11-20T08:34:01;27.90;;;18.13;;
2898;SDS011;1459;50.864;6.438;2022-11-20T08:36:32;29.80;;;18.45;;
2898;SDS011;1459;50.864;6.438;2022-11-20T08:38:59;27.48;;;18.38;;
2898;SDS011;1459;50.864;6.438;2022-11-20T08:41:26;26.30;;;17.38;;
2898;SDS011;1459;50.864;6.438;2022-11-20T08:43:54;27.67;;;18.00;;
2898;SDS011;1459;50.864;6.438;2022-11-20T08:46:23;31.98;;;19.23;;
2898;SDS011;1459;50.864;6.438;2022-11-20T08:48:51;28.63;;;17.38;;
2898;SDS011;1459;50.864;6.438;2022-11-20T08:51:19;24.15;;;15.43;;
2898;SDS011;1459;50.864;6.438;2022-11-20T08:53:47;23.60;;;16.48;;
2898;SDS011;1459;50.864;6.438;2022-11-20T08:56:15;27.23;;;16.90;;
2898;SDS011;1459;50.864;6.438;2022-11-20T08:58:42;29.83;;;18.67;;
2898;SDS011;1459;50.864;6.438;2022-11-20T09:01:09;24.02;;;16.33;;
2898;SDS011;1459;50.864;6.438;2022-11-20T09:03:37;23.05;;;16.60;;
2898;SDS011;1459;50.864;6.438;2022-11-20T09:06:04;26.98;;;16.98;;
2898;SDS011;1459;50.864;6.438;2022-11-20T09:08:33;19.85;;;14.95;;
2898;SDS011;1459;50.864;6.438;2022-11-20T09:11:02;20.02;;;14.70;;
2898;SDS011;1459;50.864;6.438;2022-11-20T09:13:30;22.02;;;14.50;;
2898;SDS011;1459;50.864;6.438;2022-11-20T09:15:58;21.33;;;14.38;;
2898;SDS011;1459;50.864;6.438;2022-11-20T09:18:26;22.55;;;15.30;;
2898;SDS011;1459;50.864;6.438;2022-11-20T09:20:55;23.35;;;15.43;;
2898;SDS011;1459;50.864;6.438;2022-11-20T09:23:23;23.73;;;16.02;;
2898;SDS011;1459;50.864;6.438;2022-11-20T09:25:51;22.48;;;15.07;;
2898;SDS011;1459;50.864;6.438;2022-11-20T09:28:21;25.23;;;15.63;;
2898;SDS011;1459;50.864;6.438;2022-11-20T09:30:48;22.92;;;14.27;;
2898;SDS011;1459;50.864;6.438;2022-11-20T09:33:15;22.50;;;14.35;;
2898;SDS011;1459;50.864;6.438;2022-11-20T09:35:42;21.90;;;13.82;;
2898;SDS011;1459;50.864;6.438;2022-11-20T09:38:09;21.13;;;13.70;;
2898;SDS011;1459;50.864;6.438;2022-11-20T09:40:38;28.13;;;15.15;;
2898;SDS011;1459;50.864;6.438;2022-11-20T09:43:10;22.05;;;14.82;;
2898;SDS011;1459;50.864;6.438;2022-11-20T09:45:47;18.80;;;14.63;;
2898;SDS011;1459;50.864;6.438;2022-11-20T09:48:33;22.77;;;13.77;;
2898;SDS011;1459;50.864;6.438;2022-11-20T09:51:12;21.40;;;14.68;;
2898;SDS011;1459;50.864;6.438;2022-11-20T09:53:51;19.65;;;14.25;;
2898;SDS011;1459;50.864;6.438;2022-11-20T09:56:30;17.15;;;13.57;;
2898;SDS011;1459;50.864;6.438;2022-11-20T09:58:59;24.48;;;14.88;;
2898;SDS011;1459;50.864;6.438;2022-11-20T10:01:33;19.85;;;15.00;;
2898;SDS011;1459;50.864;6.438;2022-11-20T10:04:03;19.65;;;13.57;;
2898;SDS011;1459;50.864;6.438;2022-11-20T10:06:37;23.85;;;16.02;;
2898;SDS011;1459;50.864;6.438;2022-11-20T10:09:15;18.20;;;12.65;;
2898;SDS011;1459;50.864;6.438;2022-11-20T10:11:49;23.63;;;15.18;;
2898;SDS011;1459;50.864;6.438;2022-11-20T10:14:26;22.33;;;15.30;;
2898;SDS011;1459;50.864;6.438;2022-11-20T10:17:09;20.02;;;13.52;;
2898;SDS011;1459;50.864;6.438;2022-11-20T10:19:52;18.42;;;13.15;;
2898;SDS011;1459;50.864;6.438;2022-11-20T10:22:29;18.77;;;14.40;;
2898;SDS011;1459;50.864;6.438;2022-11-20T10:25:09;19.95;;;14.13;;
2898;SDS011;1459;50.864;6.438;2022-11-20T10:27:48;27.20;;;16.50;;
2898;SDS011;1459;50.864;6.438;2022-11-20T10:30:31;22.23;;;15.00;;
2898;SDS011;1459;50.864;6.438;2022-11-20T10:33:06;22.30;;;15.90;;
2898;SDS011;1459;50.864;6.438;2022-11-20T10:35:42;18.80;;;14.10;;
2898;SDS011;1459;50.864;6.438;2022-11-20T10:38:13;23.75;;;15.65;;
2898;SDS011;1459;50.864;6.438;2022-11-20T10:40:45;23.75;;;15.65;;
2898;SDS011;1459;50.864;6.438;2022-11-20T10:43:16;26.25;;;17.20;;
2898;SDS011;1459;50.864;6.438;2022-11-20T10:45:50;30.48;;;19.83;;
2898;SDS011;1459;50.864;6.438;2022-11-20T10:48:24;30.02;;;18.60;;
2898;SDS011;1459;50.864;6.438;2022-11-20T10:53:58;30.95;;;20.05;;
2898;SDS011;1459;50.864;6.438;2022-11-20T10:56:34;31.33;;;20.13;;
2898;SDS011;1459;50.864;6.438;2022-11-20T10:59:11;31.10;;;19.20;;
2898;SDS011;1459;50.864;6.438;2022-11-20T11:01:53;31.73;;;18.65;;
2898;SDS011;1459;50.864;6.438;2022-11-20T11:04:28;32.90;;;20.17;;
2898;SDS011;1459;50.864;6.438;2022-11-20T11:07:08;30.83;;;18.70;;
2898;SDS011;1459;50.864;6.438;2022-11-20T11:09:39;34.53;;;20.92;;
2898;SDS011;1459;50.864;6.438;2022-11-20T11:12:09;26.88;;;18.83;;
2898;SDS011;1459;50.864;6.438;2022-11-20T11:14:44;31.25;;;19.15;;
2898;SDS011;1459;50.864;6.438;2022-11-20T11:17:26;34.67;;;20.45;;
2898;SDS011;1459;50.864;6.438;2022-11-20T11:20:04;34.38;;;20.05;;
2898;SDS011;1459;50.864;6.438;2022-11-20T11:22:33;32.17;;;19.33;;
2898;SDS011;1459;50.864;6.438;2022-11-20T11:25:11;32.90;;;19.95;;
2898;SDS011;1459;50.864;6.438;2022-11-20T11:27:54;29.63;;;19.05;;
2898;SDS011;1459;50.864;6.438;2022-11-20T11:30:22;30.35;;;19.45;;
2898;SDS011;1459;50.864;6.438;2022-11-20T11:32:50;30.70;;;19.60;;
2898;SDS011;1459;50.864;6.438;2022-11-20T11:35:29;27.48;;;18.33;;
2898;SDS011;1459;50.864;6.438;2022-11-20T11:38:02;28.70;;;18.45;;
2898;SDS011;1459;50.864;6.438;2022-11-20T11:40:32;35.08;;;20.40;;
2898;SDS011;1459;50.864;6.438;2022-11-20T11:43:02;30.77;;;19.25;;
2898;SDS011;1459;50.864;6.438;2022-11-20T11:45:52;28.20;;;17.70;;
2898;SDS011;1459;50.864;6.438;2022-11-20T11:48:19;33.38;;;20.33;;
2898;SDS011;1459;50.864;6.438;2022-11-20T11:50:49;31.92;;;19.00;;
2898;SDS011;1459;50.864;6.438;2022-11-20T11:53:19;28.17;;;18.27;;
2898;SDS011;1459;50.864;6.438;2022-11-20T11:55:50;29.42;;;18.30;;
2898;SDS011;1459;50.864;6.438;2022-11-20T11:58:28;27.85;;;19.95;;
2898;SDS011;1459;50.864;6.438;2022-11-20T12:01:07;31.45;;;19.27;;
2898;SDS011;1459;50.864;6.438;2022-11-20T12:03:44;28.38;;;18.33;;
2898;SDS011;1459;50.864;6.438;2022-11-20T12:06:23;32.08;;;18.92;;
2898;SDS011;1459;50.864;6.438;2022-11-20T12:08:55;26.85;;;17.45;;
2898;SDS011;1459;50.864;6.438;2022-11-20T12:11:29;29.40;;;19.05;;
2898;SDS011;1459;50.864;6.438;2022-11-20T12:14:00;27.42;;;17.67;;
2898;SDS011;1459;50.864;6.438;2022-11-20T12:16:36;30.05;;;18.55;;
2898;SDS011;1459;50.864;6.438;2022-11-20T12:19:07;30.90;;;18.40;;
2898;SDS011;1459;50.864;6.438;2022-11-20T12:21:40;28.02;;;18.23;;
2898;SDS011;1459;50.864;6.438;2022-11-20T12:24:24;29.48;;;18.02;;
2898;SDS011;1459;50.864;6.438;2022-11-20T12:27:05;32.97;;;18.60;;
2898;SDS011;1459;50.864;6.438;2022-11-20T12:29:46;27.52;;;17.10;;
2898;SDS011;1459;50.864;6.438;2022-11-20T12:32:34;24.08;;;16.38;;
2898;SDS011;1459;50.864;6.438;2022-11-20T12:35:17;23.00;;;17.83;;
2898;SDS011;1459;50.864;6.438;2022-11-20T12:38:00;23.10;;;15.02;;
2898;SDS011;1459;50.864;6.438;2022-11-20T12:40:39;23.95;;;16.83;;
2898;SDS011;1459;50.864;6.438;2022-11-20T12:43:14;24.80;;;16.05;;
2898;SDS011;1459;50.864;6.438;2022-11-20T12:46:07;28.63;;;16.60;;
2898;SDS011;1459;50.864;6.438;2022-11-20T12:54:48;23.30;;;17.33;;
2898;SDS011;1459;50.864;6.438;2022-11-20T12:57:24;23.42;;;14.98;;
2898;SDS011;1459;50.864;6.438;2022-11-20T13:00:07;26.10;;;17.75;;
2898;SDS011;1459;50.864;6.438;2022-11-20T13:02:53;26.80;;;18.15;;
2898;SDS011;1459;50.864;6.438;2022-11-20T13:05:58;25.55;;;16.50;;
2898;SDS011;1459;50.864;6.438;2022-11-20T13:08:32;24.50;;;17.23;;
2898;SDS011;1459;50.864;6.438;2022-11-20T13:11:03;25.95;;;17.15;;
2898;SDS011;1459;50.864;6.438;2022-11-20T13:13:42;25.58;;;17.55;;
2898;SDS011;1459;50.864;6.438;2022-11-20T13:16:17;27.02;;;17.15;;
2898;SDS011;1459;50.864;6.438;2022-11-20T13:18:49;27.55;;;18.25;;
2898;SDS011;1459;50.864;6.438;2022-11-20T13:21:17;25.45;;;17.27;;
2898;SDS011;1459;50.864;6.438;2022-11-20T13:23:46;25.17;;;18.85;;
2898;SDS011;1459;50.864;6.438;2022-11-20T13:26:16;29.75;;;17.40;;
2898;SDS011;1459;50.864;6.438;2022-11-20T13:28:45;23.52;;;15.20;;
2898;SDS011;1459;50.864;6.438;2022-11-20T13:34:09;28.15;;;18.33;;
2898;SDS011;1459;50.864;6.438;2022-11-20T13:36:48;29.13;;;18.02;;
2898;SDS011;1459;50.864;6.438;2022-11-20T13:39:23;26.42;;;17.60;;
2898;SDS011;1459;50.864;6.438;2022-11-20T13:41:55;27.52;;;17.05;;
2898;SDS011;1459;50.864;6.438;2022-11-20T13:44:24;26.20;;;17.80;;
2898;SDS011;1459;50.864;6.438;2022-11-20T13:46:54;29.55;;;16.98;;
2898;SDS011;1459;50.864;6.438;2022-11-20T13:49:23;28.08;;;17.92;;
2898;SDS011;1459;50.864;6.438;2022-11-20T13:51:57;29.05;;;16.75;;
2898;SDS011;1459;50.864;6.438;2022-11-20T13:54:55;29.70;;;16.13;;
2898;SDS011;1459;50.864;6.438;2022-11-20T13:57:46;28.58;;;17.63;;
2898;SDS011;1459;50.864;6.438;2022-11-20T14:00:24;31.10;;;18.50;;
2898;SDS011;1459;50.864;6.438;2022-11-20T14:02:58;25.67;;;15.98;;
2898;SDS011;1459;50.864;6.438;2022-11-20T14:05:28;28.25;;;17.27;;
2898;SDS011;1459;50.864;6.438;2022-11-20T14:08:02;27.17;;;18.33;;
2898;SDS011;1459;50.864;6.438;2022-11-20T14:10:30;28.27;;;17.42;;
2898;SDS011;1459;50.864;6.438;2022-11-20T14:12:58;24.90;;;15.85;;
2898;SDS011;1459;50.864;6.438;2022-11-20T14:15:37;25.00;;;17.52;;
2898;SDS011;1459;50.864;6.438;2022-11-20T14:18:11;29.67;;;17.35;;
2898;SDS011;1459;50.864;6.438;2022-11-20T14:20:39;29.88;;;18.95;;
2898;SDS011;1459;50.864;6.438;2022-11-20T14:23:09;24.30;;;16.33;;
2898;SDS011;1459;50.864;6.438;2022-11-20T14:25:36;33.40;;;18.20;;
2898;SDS011;1459;50.864;6.438;2022-11-20T14:28:11;27.33;;;17.20;;
2898;SDS011;1459;50.864;6.438;2022-11-20T14:30:50;27.42;;;18.00;;
2898;SDS011;1459;50.864;6.438;2022-11-20T14:33:17;29.08;;;18.02;;
2898;SDS011;1459;50.864;6.438;2022-11-20T14:35:45;28.33;;;19.25;;
2898;SDS011;1459;50.864;6.438;2022-11-20T14:38:13;29.67;;;18.00;;
2898;SDS011;1459;50.864;6.438;2022-11-20T14:40:43;26.73;;;16.70;;
2898;SDS011;1459;50.864;6.438;2022-11-20T14:43:22;26.52;;;16.48;;
2898;SDS011;1459;50.864;6.438;2022-11-20T14:45:58;27.67;;;18.60;;
2898;SDS011;1459;50.864;6.438;2022-11-20T14:48:28;26.15;;;15.70;;
2898;SDS011;1459;50.864;6.438;2022-11-20T14:51:00;25.65;;;16.38;;
2898;SDS011;1459;50.864;6.438;2022-11-20T14:53:27;30.35;;;17.95;;
2898;SDS011;1459;50.864;6.438;2022-11-20T14:55:54;34.10;;;19.90;;
2898;SDS011;1459;50.864;6.438;2022-11-20T14:58:25;31.67;;;19.30;;
2898;SDS011;1459;50.864;6.438;2022-11-20T15:00:54;33.35;;;17.92;;
2898;SDS011;1459;50.864;6.438;2022-11-20T15:03:22;34.78;;;19.20;;
2898;SDS011;1459;50.864;6.438;2022-11-20T15:05:49;32.13;;;20.08;;
2898;SDS011;1459;50.864;6.438;2022-11-20T15:08:17;25.55;;;17.00;;
2898;SDS011;1459;50.864;6.438;2022-11-20T15:10:45;24.27;;;16.58;;
2898;SDS011;1459;50.864;6.438;2022-11-20T15:13:15;18.75;;;13.38;;
2898;SDS011;1459;50.864;6.438;2022-11-20T15:15:48;17.85;;;12.98;;
2898;SDS011;1459;50.864;6.438;2022-11-20T15:18:17;24.33;;;14.52;;
2898;SDS011;1459;50.864;6.438;2022-11-20T15:20:46;22.13;;;13.55;;